Knoxville, Texas
Current Conditions -  °F | °C
As of 4:55 AM on Monday 20 Oct 2014 (Local Time) from KT82 Reporting Station
Overcast Overcast  
Wind Chill: 62°   Ceiling: 1300
Heat Index: 62°   Visibility: 10mi
Dew Point: 59°   Wind: 0mph
Humidity: 92%   Direction: NA
Pressure: 30.05"   Gusts: NA
Location:  30.3145°N, 99.2255°W
Report Text: KT82 200955Z AUTO 00000KT 10SM OVC013 17/15 A3005 RMK AO2 T01650152
Loading
Personal Weather Stations






























Interactive Weather Map
Tropical Storm Tracking
New forecast layout! Learn more

10-Day Weather Forecast

Advertisements
Track Severe Weather on mobile